Skywest CRJ2 at Houston on May 11th 2022, runway excursion on landing

Last Update: May 13, 2022 / 09:18:53 GMT/Zulu time

Bookmark this article
Incident Facts

Date of incident
May 11, 2022

Classification
Incident

Flight number
UA-5069

Aircraft Registration
N965SW

ICAO Type Designator
CRJ2

Airport ICAO Code
KIAH

A Skywest Airlines Canadair CRJ-200 on behalf of United, registration N965SW performing flight UA-5069 from Victoria,TX to Houston Intercontinental,TX (USA) with 13 passengers and 3 crew, landed on Houston's runway 08R (tower reported winds from 120 degrees at 13 knots) at 14:19L (19:19Z) maintaining routine communication but veered off right off the runway on landing and came to a stop with all gear on soft ground about 1450 meters/4750 feet down the runway. Tower alerted emergency services at that point telling them the aircraft was on the grass between taxiways NK and J (editorial note: the aircraft came to a stop on the grass between taxiways NH, NK, NA and NJ). The crew advised emergency services, everything on board was fine, no damage, no indications, no injuries, they had shut down the engines and were operating the APU, no evacuation intended/needed, everybody was calm in the cabin, they just needed to get out and taxi to the apron, they kept the doors closed to keep cool in the aircraft. There were no injuries, the aircraft sustained minor if any damage. The main door was eventually opened and the passengers disembarked normally onto the grass via the aircraft stairs.

The airline reported the aircraft experienced a steering issue and rolled off the runway at the end of its landing run.

The FAA reported: "AIRCRAFT LANDED AND VEERED OFF RUNWAY INTO THE GRASS, HOUSTON, TX.", the damage was "UNKNOWN" and the occcurrence was rated an incident.

Metars:
KIAH 112253Z 12009KT 10SM FEW035 FEW250 29/19 A3007 RMK AO2 SLP182 T02940194=
KIAH 112153Z 14008KT 10SM FEW037 FEW250 30/19 A3007 RMK AO2 SLP182 T03000194=
KIAH 112053Z 12011KT 10SM FEW038 FEW190 SCT250 31/19 A3008 RMK AO2 SLP186 T03060194 58007=
KIAH 111953Z 10012G20KT 10SM FEW040 SCT180 SCT250 31/20 A3010 RMK AO2 SLP190 T03110200=
KIAH 111853Z 12009KT 10SM FEW040 SCT250 31/20 A3010 RMK AO2 SLP192 T03110200=
KIAH 111753Z 11013G19KT 10SM FEW036 SCT250 31/21 A3011 RMK AO2 SLP194 T03060206 10311 20222 58007=
KIAH 111653Z 13012KT 10SM SCT035 SCT250 29/21 A3013 RMK AO2 SLP201 T02940206=
KIAH 111553Z 13010KT 10SM SCT025 BKN250 28/22 A3013 RMK AO2 SLP200 T02830217=
Aircraft Registration Data
Registration mark
N965SW
Country of Registration
United States
Date of Registration
PnAbdf d jAqcmAbk Subscribe to unlock
Manufacturer
BOMBARDIER INC
Aircraft Model / Type
CL-600-2B19
Number of Seats
ICAO Aircraft Type
CRJ2
Year of Manufacture
Serial Number
Aircraft Address / Mode S Code (HEX)
Engine Count
Engine Manufacturer
Engine Model
Engine Type
Pounds of Thrust
Main Owner
Glkcpgbngnhblh icejnejcdnpnkp fhnmplgdpfqjAhhAjlAbbpqhjdeAhdehbigg immjjhjf c Subscribe to unlock
Incident Facts

Date of incident
May 11, 2022

Classification
Incident

Flight number
UA-5069

Aircraft Registration
N965SW

ICAO Type Designator
CRJ2

Airport ICAO Code
KIAH

This article is published under license from Avherald.com. © of text by Avherald.com.
Article source

You can read 2 more free articles without a subscription.

Subscribe now and continue reading without any limits!

Are you a subscriber? Login
Subscribe

Read unlimited articles and receive our daily update briefing. Gain better insights into what is happening in commercial aviation safety.

Free newsletter

Want to know more and stay ahead? Get our free weekly newsletter and join 5457 existing subscribers.

By subscribing, you accept our terms and conditions and confirm that you've read our privacy policy.

Send tip

Support AeroInside by sending a small tip amount.

Related articles

Newest articles

Subscribe today

Are you researching aviation incidents? Get access to AeroInside Insights, unlimited read access and receive the daily newsletter.

Pick your plan and subscribe

Partner

Blockaviation logo

A new way to document and demonstrate airworthiness compliance and aircraft value. Find out more.

Virtual Speech logo

ELITE Simulation Solutions is a leading global provider of Flight Simulation Training Devices, IFR training software as well as flight controls and related services. Find out more.

Get updates

Never miss an article from AeroInside. Subscribe to our free weekly newsletter and join 5457 existing subscribers.

By subscribing, you accept our terms and conditions and that you've read our privacy policy.

AeroInside Blog
Popular aircraft
Airbus A320
Boeing 737-800
Boeing 737-800 MAX
Popular airlines
American Airlines
United
Delta
Air Canada
Lufthansa
British Airways